METAR Data

Data at: 2115 UTC 01 Dec 2021

METAR for:KBOS (Boston/Logan Intl, MA, US)
Text:KBOS 011954Z 27010KT 10SM FEW048 SCT200 BKN250 07/M03 A3010 RMK AO2 SLP192 T00721033
Temperature: 7.2°C ( 45°F)
Dewpoint: -3.3°C ( 26°F) [RH = 47%]
Pressure (altimeter):30.10 inches Hg (1019.4 mb) [Sea level pressure: 1019.2 mb]
Winds:from the W (270 degrees) at 12 MPH (10 knots; 5.1 m/s)
Visibility:10 or more sm (16+ km)
Ceiling:25000 feet AGL
Clouds: few clouds at 4800 feet AGL, scattered clouds at 20000 feet AGL, broken clouds at 25000 feet AGL